Time;durP1;ratioP1;P1;durP2;ratioP2;P2;SDS_P1;SDS_P2;PMS_P1;PMS_P2;Temp;Humidity;BMP_temperature;BMP_pressure;BME280_temperature;BME280_humidity;BME280_pressure;Samples;Min_cycle;Max_cycle;Signal;HPM_P1;HPM_P2
2023/07/16 00:00:19;;;;;;;20.13;11.77;;;;;;;19.94;100.00;97213.03;5031523;28;20465;-73
2023/07/16 00:02:45;;;;;;;20.75;11.68;;;;;;;20.02;100.00;97231.06;5031333;28;20842;-73
2023/07/16 00:05:11;;;;;;;20.45;12.13;;;;;;;19.92;100.00;97226.78;5031342;28;20399;-73
2023/07/16 00:07:39;;;;;;;22.02;11.32;;;;;;;20.02;100.00;97228.38;5031440;28;20893;-73
2023/07/16 00:10:05;;;;;;;21.10;11.02;;;;;;;20.02;100.00;97226.47;5031386;28;20403;-73
2023/07/16 00:12:32;;;;;;;17.63;10.25;;;;;;;19.91;100.00;97219.84;5031275;28;20917;-73
2023/07/16 00:14:58;;;;;;;20.30;10.47;;;;;;;19.96;100.00;97218.88;5031074;28;20415;-73
2023/07/16 00:17:24;;;;;;;20.40;10.13;;;;;;;20.02;100.00;97228.38;5031232;28;20395;-72
2023/07/16 00:19:50;;;;;;;19.55;9.60;;;;;;;19.87;100.00;97218.88;5030918;28;20407;-73
2023/07/16 00:22:16;;;;;;;16.65;9.32;;;;;;;19.90;100.00;97204.03;5030999;28;20813;-73
2023/07/16 00:24:44;;;;;;;16.08;9.32;;;;;;;19.68;100.00;97200.38;5030896;28;20464;-73
2023/07/16 00:27:10;;;;;;;14.88;8.27;;;;;;;19.66;100.00;97202.59;5029716;28;20418;-73
2023/07/16 00:29:36;;;;;;;14.87;7.63;;;;;;;19.69;100.00;97211.91;5030095;28;20403;-73
2023/07/16 00:32:02;;;;;;;12.90;7.00;;;;;;;19.71;100.00;97212.38;5030113;28;20413;-73
2023/07/16 00:34:29;;;;;;;14.88;8.18;;;;;;;19.74;100.00;97224.38;5028707;28;20411;-73
2023/07/16 00:37:01;;;;;;;12.20;7.50;;;;;;;19.75;100.00;97228.66;5030218;28;20478;-73
2023/07/16 00:39:27;;;;;;;16.35;7.50;;;;;;;19.77;100.00;97243.38;5030024;28;20760;-73
2023/07/16 00:41:55;;;;;;;12.15;7.30;;;;;;;19.78;100.00;97239.56;5029956;28;20421;-71
2023/07/16 00:44:21;;;;;;;13.38;7.28;;;;;;;19.72;100.00;97243.50;5029782;28;20401;-73
2023/07/16 00:46:48;;;;;;;10.50;6.25;;;;;;;19.79;100.00;97243.03;5030030;28;20414;-73
2023/07/16 00:49:14;;;;;;;16.25;7.97;;;;;;;19.82;100.00;97232.47;5030134;28;20395;-73
2023/07/16 00:51:41;;;;;;;12.02;6.63;;;;;;;19.77;100.00;97231.84;5029758;28;20403;-73
2023/07/16 00:54:07;;;;;;;9.77;5.82;;;;;;;19.78;100.00;97228.81;5029806;28;20403;-73
2023/07/16 00:56:34;;;;;;;10.45;6.28;;;;;;;19.74;100.00;97221.69;5029847;28;20403;-73
2023/07/16 00:59:02;;;;;;;13.37;6.30;;;;;;;19.79;100.00;97227.72;5029812;28;20424;-73
2023/07/16 01:01:28;;;;;;;10.13;5.40;;;;;;;19.77;100.00;97234.53;5026270;28;20847;-73
2023/07/16 01:03:55;;;;;;;10.33;6.07;;;;;;;19.74;100.00;97241.28;5009972;28;20480;-73
2023/07/16 01:06:26;;;;;;;8.18;5.50;;;;;;;19.78;100.00;97257.56;5009954;28;20417;-72
2023/07/16 01:08:58;;;;;;;10.82;6.45;;;;;;;19.76;100.00;97270.53;5022560;28;20406;-73
2023/07/16 01:11:26;;;;;;;11.10;6.97;;;;;;;19.77;100.00;97270.22;5029607;28;20815;-73
2023/07/16 01:13:53;;;;;;;10.48;6.45;;;;;;;19.75;100.00;97275.13;5029448;28;20889;-73
2023/07/16 01:16:22;;;;;;;12.50;6.88;;;;;;;19.83;100.00;97287.78;5029629;28;20852;-73
2023/07/16 01:18:49;;;;;;;13.05;6.82;;;;;;;19.85;100.00;97284.75;5029706;28;21119;-73
2023/07/16 01:21:18;;;;;;;13.95;6.72;;;;;;;19.76;100.00;97274.00;5029553;28;20437;-73
2023/07/16 01:24:14;;;;;;;13.45;7.07;;;;;;;19.70;100.00;97278.72;5029341;28;20408;-73
2023/07/16 01:26:59;;;;;;;13.25;6.35;;;;;;;19.76;100.00;97274.00;4968809;28;1735085;-72
2023/07/16 01:29:36;;;;;;;10.45;5.80;;;;;;;19.68;100.00;97288.22;5030185;28;20418;-72
2023/07/16 01:32:05;;;;;;;14.40;7.25;;;;;;;19.58;100.00;97285.81;5032536;28;20453;-73
2023/07/16 01:34:34;;;;;;;10.90;6.45;;;;;;;19.34;100.00;97281.56;5032779;28;20453;-73
2023/07/16 01:37:01;;;;;;;9.63;5.82;;;;;;;19.37;100.00;97282.06;5034324;28;20407;-73
2023/07/16 01:39:27;;;;;;;9.30;5.53;;;;;;;19.27;100.00;97293.84;5034152;28;20453;-73
2023/07/16 01:41:54;;;;;;;11.88;5.93;;;;;;;19.26;100.00;97297.63;5034168;28;20399;-73
2023/07/16 01:44:20;;;;;;;13.98;6.75;;;;;;;19.42;100.00;97293.44;5033994;28;20434;-73
2023/07/16 01:47:02;;;;;;;11.73;6.35;;;;;;;19.19;100.00;97283.88;5034054;28;20415;-73
2023/07/16 01:49:28;;;;;;;13.02;6.85;;;;;;;19.19;100.00;97281.19;5034027;28;20442;-73
2023/07/16 01:51:54;;;;;;;15.43;6.82;;;;;;;19.19;100.00;97267.78;5033898;28;20406;-73
2023/07/16 01:54:20;;;;;;;12.15;5.90;;;;;;;19.15;100.00;97253.41;5033889;28;20403;-73
2023/07/16 01:56:47;;;;;;;11.85;5.82;;;;;;;19.27;100.00;97267.03;5033941;28;20614;-73
2023/07/16 01:59:13;;;;;;;12.80;6.20;;;;;;;19.23;100.00;97277.59;5034025;28;20494;-73
2023/07/16 02:01:39;;;;;;;11.75;5.70;;;;;;;19.21;100.00;97295.09;5033704;28;20910;-73
2023/07/16 02:04:06;;;;;;;12.23;6.38;;;;;;;19.17;100.00;97288.78;5033689;28;20473;-73
2023/07/16 02:06:33;;;;;;;15.98;6.20;;;;;;;19.12;100.00;97291.56;5033707;28;20422;-73
2023/07/16 02:08:59;;;;;;;12.18;5.82;;;;;;;19.09;100.00;97308.31;5033761;28;20951;-73
2023/07/16 02:11:25;;;;;;;9.65;5.03;;;;;;;19.08;100.00;97296.00;5033425;28;20403;-73
2023/07/16 02:13:51;;;;;;;9.52;5.13;;;;;;;19.08;100.00;97269.16;5033470;28;20494;-73
2023/07/16 02:16:17;;;;;;;7.85;4.85;;;;;;;19.10;100.00;97289.19;5033518;28;20413;-73
2023/07/16 02:18:43;;;;;;;15.10;6.75;;;;;;;19.15;100.00;97307.06;5033498;28;20403;-73
2023/07/16 02:21:11;;;;;;;10.03;5.47;;;;;;;19.03;100.00;97290.72;5033515;28;20497;-73
2023/07/16 02:23:37;;;;;;;16.17;7.28;;;;;;;18.96;100.00;97291.16;5033255;28;20461;-73
2023/07/16 02:26:03;;;;;;;12.60;6.30;;;;;;;18.90;100.00;97301.25;5033024;28;20904;-73
2023/07/16 02:28:30;;;;;;;11.68;6.10;;;;;;;18.87;100.00;97312.56;5033301;28;20435;-73
2023/07/16 02:30:56;;;;;;;11.70;6.30;;;;;;;18.86;100.00;97319.06;5033288;28;20403;-73
2023/07/16 02:33:22;;;;;;;10.47;5.83;;;;;;;18.79;100.00;97321.38;5033064;28;20414;-73
2023/07/16 02:35:49;;;;;;;13.75;6.90;;;;;;;18.84;100.00;97321.25;5033141;28;20765;-73
2023/07/16 02:38:16;;;;;;;15.57;7.20;;;;;;;18.92;100.00;97314.34;5033172;28;20395;-73
2023/07/16 02:40:44;;;;;;;12.97;6.60;;;;;;;18.79;100.00;97302.59;5032895;28;20407;-73
2023/07/16 02:43:10;;;;;;;12.38;6.05;;;;;;;18.80;100.00;97300.69;5032680;28;20434;-73
2023/07/16 02:45:36;;;;;;;11.50;6.00;;;;;;;18.86;100.00;97292.25;5038905;28;20440;-73
2023/07/16 02:48:04;;;;;;;14.45;7.30;;;;;;;18.77;100.00;97310.16;5013189;28;20421;-73
2023/07/16 02:50:33;;;;;;;9.25;5.70;;;;;;;18.93;100.00;97307.91;5013034;28;20416;-73
2023/07/16 02:52:59;;;;;;;19.50;7.13;;;;;;;18.77;100.00;97306.69;5012967;28;20408;-73
2023/07/16 02:55:26;;;;;;;21.73;8.05;;;;;;;18.82;100.00;97303.88;5012791;28;20409;-73
2023/07/16 02:57:53;;;;;;;22.67;8.82;;;;;;;18.59;100.00;97311.13;5013013;28;20452;-73
2023/07/16 03:00:19;;;;;;;12.80;6.82;;;;;;;18.49;100.00;97316.72;5012997;28;20587;-73
2023/07/16 03:02:45;;;;;;;13.95;6.93;;;;;;;18.47;100.00;97335.78;5032342;28;20426;-73
2023/07/16 03:05:11;;;;;;;20.45;8.23;;;;;;;18.43;100.00;97331.28;5032512;28;20790;-73
2023/07/16 03:07:38;;;;;;;12.40;6.93;;;;;;;18.37;100.00;97333.31;5032437;28;20442;-73
2023/07/16 03:10:04;;;;;;;15.40;7.30;;;;;;;18.37;100.00;97313.75;5032833;28;20764;-73
2023/07/16 03:12:32;;;;;;;16.63;7.75;;;;;;;18.39;100.00;97328.44;5032182;28;20903;-73
2023/07/16 03:14:58;;;;;;;14.73;7.43;;;;;;;18.34;100.00;97330.44;5032268;28;20415;-73
2023/07/16 03:17:24;;;;;;;18.02;7.80;;;;;;;18.38;100.00;97331.41;5032299;28;20441;-73
2023/07/16 03:19:50;;;;;;;18.42;8.85;;;;;;;18.37;100.00;97333.31;5032289;28;20492;-73
2023/07/16 03:22:16;;;;;;;19.10;7.70;;;;;;;18.30;100.00;97348.22;5032097;28;20415;-73
2023/07/16 03:24:43;;;;;;;18.52;8.10;;;;;;;18.26;100.00;97341.88;5031963;28;20932;-73
2023/07/16 03:27:09;;;;;;;15.25;7.38;;;;;;;18.11;100.00;97353.72;5032012;28;20423;-73
2023/07/16 03:29:37;;;;;;;13.87;6.77;;;;;;;18.09;100.00;97337.16;5032138;28;20496;-73
2023/07/16 03:32:03;;;;;;;9.68;5.88;;;;;;;18.11;100.00;97343.81;5030811;28;20407;-73
2023/07/16 03:34:30;;;;;;;13.23;6.90;;;;;;;18.14;100.00;97353.09;5031834;28;20406;-73
2023/07/16 03:36:56;;;;;;;19.83;8.00;;;;;;;18.18;100.00;97367.50;5032145;28;20804;-73
2023/07/16 03:39:22;;;;;;;26.80;9.60;;;;;;;18.13;100.00;97397.84;5031790;28;20407;-73
2023/07/16 03:41:48;;;;;;;18.05;8.23;;;;;;;18.07;100.00;97387.53;5031716;28;20395;-73
2023/07/16 03:44:14;;;;;;;14.32;7.40;;;;;;;18.02;100.00;97368.91;5031737;28;20413;-73
2023/07/16 03:46:42;;;;;;;12.05;6.38;;;;;;;18.01;100.00;97392.22;5031691;28;20430;-73
2023/07/16 03:49:08;;;;;;;17.50;8.10;;;;;;;18.10;100.00;97408.38;5031747;28;20418;-73
2023/07/16 03:51:35;;;;;;;17.52;8.32;;;;;;;18.13;100.00;97402.41;5030231;28;20553;-73
2023/07/16 03:54:01;;;;;;;19.10;7.63;;;;;;;18.21;100.00;97414.31;5030691;28;20824;-73
2023/07/16 03:56:27;;;;;;;21.77;8.80;;;;;;;18.15;100.00;97430.50;5031584;28;20815;-73
2023/07/16 03:58:53;;;;;;;18.33;8.55;;;;;;;18.17;100.00;97422.19;5031534;28;20411;-73
2023/07/16 04:01:19;;;;;;;18.20;8.32;;;;;;;18.17;100.00;97440.94;5031488;28;20457;-73
2023/07/16 04:03:47;;;;;;;17.85;8.10;;;;;;;18.14;100.00;97447.66;5031355;28;20497;-73
2023/07/16 04:06:15;;;;;;;17.42;8.25;;;;;;;18.05;100.00;97441.41;5031150;28;20415;-73
2023/07/16 04:08:41;;;;;;;17.92;8.40;;;;;;;18.08;100.00;97445.38;5031288;28;20414;-73
2023/07/16 04:11:07;;;;;;;18.13;8.60;;;;;;;18.04;100.00;97442.50;5031304;28;20893;-73
2023/07/16 04:13:33;;;;;;;19.40;8.38;;;;;;;18.01;100.00;97427.03;5031135;28;20907;-73
2023/07/16 04:16:00;;;;;;;18.08;8.82;;;;;;;18.03;100.00;97414.16;5031197;28;20760;-73
2023/07/16 04:18:26;;;;;;;24.63;10.10;;;;;;;18.12;100.00;97414.22;5031195;28;20406;-73
2023/07/16 04:20:53;;;;;;;16.75;8.48;;;;;;;18.04;100.00;97404.22;5031162;28;20506;-73
2023/07/16 04:23:20;;;;;;;21.63;9.13;;;;;;;17.95;100.00;97404.13;5031086;28;20486;-73
2023/07/16 04:25:46;;;;;;;17.13;8.03;;;;;;;17.91;100.00;97388.94;5030842;28;20407;-73
2023/07/16 04:28:13;;;;;;;21.95;9.25;;;;;;;17.96;100.00;97416.44;5030999;28;20425;-73
2023/07/16 04:30:39;;;;;;;19.20;8.63;;;;;;;17.96;100.00;97424.47;5030866;28;20465;-73
2023/07/16 04:33:06;;;;;;;18.30;9.00;;;;;;;17.94;100.00;97431.19;5030956;28;20415;-73
2023/07/16 04:35:33;;;;;;;19.95;9.30;;;;;;;17.92;100.00;97449.44;5030675;28;20497;-73
2023/07/16 04:38:00;;;;;;;26.15;9.43;;;;;;;17.98;100.00;97454.41;5030935;28;20493;-72
2023/07/16 04:40:27;;;;;;;17.63;8.32;;;;;;;17.85;100.00;97457.88;5030797;28;20429;-72
2023/07/16 04:42:53;;;;;;;19.90;8.70;;;;;;;17.82;100.00;97455.78;5030744;28;20443;-72
2023/07/16 04:45:19;;;;;;;25.50;10.07;;;;;;;17.96;100.00;97478.03;5029447;28;20754;-72
2023/07/16 04:47:45;;;;;;;24.10;9.50;;;;;;;17.79;100.00;97483.94;5030586;28;20410;-72
2023/07/16 04:50:11;;;;;;;19.05;8.90;;;;;;;17.76;100.00;97481.06;5030690;28;20399;-72
2023/07/16 04:52:38;;;;;;;18.30;8.15;;;;;;;17.73;100.00;97478.97;5030424;28;20838;-73
2023/07/16 04:55:07;;;;;;;19.67;8.52;;;;;;;17.76;100.00;97475.69;5030526;28;20403;-73
2023/07/16 04:57:34;;;;;;;19.73;9.40;;;;;;;17.75;100.00;97485.63;5030575;28;20817;-73
2023/07/16 05:00:00;;;;;;;16.75;8.07;;;;;;;17.74;100.00;97476.00;5030574;28;20449;-73
2023/07/16 05:02:26;;;;;;;21.67;9.07;;;;;;;17.82;100.00;97479.88;5030401;28;20402;-73
2023/07/16 05:04:52;;;;;;;18.85;8.00;;;;;;;17.82;100.00;97473.75;5030336;28;20400;-73
2023/07/16 05:07:19;;;;;;;21.57;9.53;;;;;;;17.85;100.00;97484.66;5030389;28;20494;-73
2023/07/16 05:09:45;;;;;;;24.75;9.63;;;;;;;17.87;100.00;97487.84;5030418;28;20482;-73
2023/07/16 05:12:13;;;;;;;22.92;9.88;;;;;;;17.87;100.00;97495.88;5029118;28;20419;-73
2023/07/16 05:14:45;;;;;;;20.65;8.93;;;;;;;17.86;100.00;97496.94;5030265;28;20407;-73
2023/07/16 05:17:12;;;;;;;20.17;9.10;;;;;;;17.85;100.00;97486.53;5030377;28;20943;-73
2023/07/16 05:19:38;;;;;;;15.37;8.13;;;;;;;17.85;100.00;97481.16;5030155;28;20417;-73
2023/07/16 05:22:05;;;;;;;24.83;10.15;;;;;;;17.95;100.00;97489.03;5030162;28;20962;-73
2023/07/16 05:24:32;;;;;;;20.00;9.07;;;;;;;17.83;100.00;97481.47;5030056;28;20453;-73
2023/07/16 05:26:58;;;;;;;20.52;8.88;;;;;;;17.83;100.00;97489.50;5030129;28;20430;-73
2023/07/16 05:29:26;;;;;;;16.42;8.32;;;;;;;17.89;100.00;97484.88;5030598;28;20494;-73
2023/07/16 05:31:52;;;;;;;20.60;9.23;;;;;;;17.87;100.00;97479.78;5023946;28;20419;-72
2023/07/16 05:34:18;;;;;;;26.07;9.57;;;;;;;17.98;100.00;97483.06;5010320;28;20463;-72
2023/07/16 05:36:44;;;;;;;16.90;8.88;;;;;;;17.91;100.00;97486.13;5030588;28;20419;-72
2023/07/16 05:39:12;;;;;;;17.45;8.20;;;;;;;17.97;100.00;97502.91;5030170;28;20490;-72
2023/07/16 05:41:39;;;;;;;17.92;8.57;;;;;;;17.98;100.00;97501.81;5029688;28;20439;-72
2023/07/16 05:44:05;;;;;;;22.23;10.17;;;;;;;18.09;100.00;97496.00;5030249;28;20461;-73
2023/07/16 05:46:34;;;;;;;19.88;9.48;;;;;;;18.13;100.00;97491.63;5029674;28;20423;-73
2023/07/16 05:49:00;;;;;;;20.50;9.82;;;;;;;18.16;100.00;97512.47;5030087;28;20490;-73
2023/07/16 05:51:26;;;;;;;24.10;9.93;;;;;;;18.24;100.00;97523.59;5027435;28;20404;-73
2023/07/16 05:53:52;;;;;;;23.70;10.20;;;;;;;18.25;100.00;97517.16;5028969;28;20469;-73
2023/07/16 05:56:19;;;;;;;24.92;10.07;;;;;;;18.26;100.00;97513.38;5030206;28;20411;-74
2023/07/16 05:58:45;;;;;;;22.75;10.23;;;;;;;18.26;100.00;97511.50;5030379;28;20403;-74
2023/07/16 06:01:11;;;;;;;22.70;10.10;;;;;;;18.30;100.00;97507.13;5030320;28;20411;-73
2023/07/16 06:03:39;;;;;;;22.42;9.82;;;;;;;18.27;100.00;97491.63;5030262;28;20411;-73
2023/07/16 06:06:05;;;;;;;23.48;9.88;;;;;;;18.29;100.00;97500.16;5028668;28;20407;-73
2023/07/16 06:08:31;;;;;;;17.98;8.80;;;;;;;18.22;100.00;97494.41;5030342;28;20415;-73
2023/07/16 06:10:58;;;;;;;17.67;8.40;;;;;;;18.21;100.00;97486.66;5030203;28;20452;-73
2023/07/16 06:13:24;;;;;;;18.77;8.70;;;;;;;18.23;100.00;97516.63;5030128;28;20398;-73
2023/07/16 06:15:50;;;;;;;20.77;9.55;;;;;;;18.29;100.00;97520.81;5030131;28;20407;-73
2023/07/16 06:18:16;;;;;;;18.38;8.80;;;;;;;18.34;100.00;97529.56;5031644;28;20413;-72
2023/07/16 06:20:45;;;;;;;20.40;9.50;;;;;;;18.34;100.00;97524.22;5033041;28;20865;-71
2023/07/16 06:23:12;;;;;;;18.38;9.45;;;;;;;18.33;100.00;97519.94;5033268;28;20403;-72
2023/07/16 06:25:40;;;;;;;21.55;9.27;;;;;;;18.34;100.00;97507.34;5032737;28;20410;-72
2023/07/16 06:28:06;;;;;;;16.87;8.73;;;;;;;18.34;100.00;97501.97;5032543;28;20423;-73
2023/07/16 06:30:33;;;;;;;18.60;9.45;;;;;;;18.37;100.00;97517.44;5033228;28;20417;-74
2023/07/16 06:32:59;;;;;;;25.50;10.25;;;;;;;18.37;100.00;97518.22;5033115;28;20893;-73
2023/07/16 06:35:26;;;;;;;20.10;9.88;;;;;;;18.39;100.00;97509.91;5032918;28;20433;-73
2023/07/16 06:37:53;;;;;;;23.50;10.15;;;;;;;18.41;100.00;97521.91;5033598;28;20407;-73
2023/07/16 06:40:19;;;;;;;26.40;10.23;;;;;;;18.46;100.00;97515.66;5033335;28;20403;-73
2023/07/16 06:42:46;;;;;;;23.05;10.07;;;;;;;18.52;100.00;97511.78;5033377;28;20494;-73
2023/07/16 06:45:12;;;;;;;18.35;8.88;;;;;;;18.52;100.00;97509.88;5031898;28;20418;-72
2023/07/16 06:47:38;;;;;;;33.25;11.65;;;;;;;18.61;100.00;97518.06;5033227;28;20442;-71
2023/07/16 06:50:05;;;;;;;27.70;11.38;;;;;;;18.50;100.00;97517.44;5033207;28;20407;-71
2023/07/16 06:52:31;;;;;;;25.15;10.05;;;;;;;18.49;100.00;97512.38;5033048;28;21082;-72
2023/07/16 06:54:59;;;;;;;23.87;9.43;;;;;;;18.56;100.00;97504.78;5033167;28;20865;-72
2023/07/16 06:57:25;;;;;;;19.77;9.48;;;;;;;18.62;100.00;97511.63;5033173;28;20410;-71
2023/07/16 06:59:51;;;;;;;19.48;9.52;;;;;;;18.66;100.00;97520.63;5033021;28;20402;-71
2023/07/16 07:02:18;;;;;;;24.67;11.00;;;;;;;18.73;100.00;97529.06;5032945;28;20889;-71
2023/07/16 07:04:45;;;;;;;21.10;10.18;;;;;;;18.73;100.00;97531.75;5032793;28;20947;-71
2023/07/16 07:07:11;;;;;;;22.98;9.80;;;;;;;18.70;100.00;97527.00;5032255;28;20530;-70
2023/07/16 07:09:37;;;;;;;20.33;9.33;;;;;;;18.63;100.00;97525.81;5031600;28;20490;-69
2023/07/16 07:12:05;;;;;;;27.05;10.52;;;;;;;18.54;100.00;97517.63;5032001;28;20430;-71
2023/07/16 07:14:33;;;;;;;20.67;8.60;;;;;;;18.61;100.00;97514.59;5030916;28;20878;-71
2023/07/16 07:17:00;;;;;;;27.80;10.87;;;;;;;18.58;100.00;97513.28;5032262;28;20494;-72
2023/07/16 07:19:26;;;;;;;20.63;10.43;;;;;;;18.50;100.00;97514.75;5031337;28;20899;-71
2023/07/16 07:21:52;;;;;;;21.33;9.77;;;;;;;18.55;100.00;97509.31;5031353;28;20411;-71
2023/07/16 07:24:19;;;;;;;28.08;10.40;;;;;;;18.61;100.00;97506.53;5053113;22;20704;-74
2023/07/16 07:26:45;;;;;;;25.52;10.60;;;;;;;18.63;100.00;97496.31;5076226;28;20412;-75
2023/07/16 07:29:13;;;;;;;35.10;12.57;;;;;;;18.50;100.00;97511.28;5079536;28;20398;-73
2023/07/16 07:31:39;;;;;;;26.45;10.88;;;;;;;18.58;100.00;97515.97;5084772;28;20416;-73
2023/07/16 07:34:05;;;;;;;23.50;9.98;;;;;;;18.75;100.00;97528.78;5071841;28;20492;-73
2023/07/16 07:36:32;;;;;;;28.37;11.10;;;;;;;18.82;100.00;97534.53;5070831;28;20404;-73
2023/07/16 07:38:58;;;;;;;27.27;11.43;;;;;;;18.66;100.00;97538.59;5071849;28;20403;-75
2023/07/16 07:41:24;;;;;;;36.20;12.30;;;;;;;18.66;100.00;97547.44;5071836;28;20410;-75
2023/07/16 07:43:50;;;;;;;24.42;10.10;;;;;;;18.83;100.00;97536.13;5058992;28;20412;-73
2023/07/16 07:46:18;;;;;;;20.40;9.93;;;;;;;18.94;100.00;97532.13;5059264;28;20777;-74
2023/07/16 07:48:44;;;;;;;24.17;10.60;;;;;;;18.95;100.00;97529.13;5061741;28;20408;-73
2023/07/16 07:51:10;;;;;;;19.20;8.93;;;;;;;19.09;100.00;97531.00;5060937;28;20400;-74
2023/07/16 07:53:36;;;;;;;39.05;12.30;;;;;;;19.08;100.00;97535.56;5062445;28;20410;-74
2023/07/16 07:56:03;;;;;;;23.55;9.38;;;;;;;19.21;100.00;97544.69;5059748;28;20488;-73
2023/07/16 08:01:45;;;;;;;26.92;10.73;;;;;;;19.06;100.00;97553.84;5042689;28;20411;-74
2023/07/16 08:04:11;;;;;;;28.40;11.02;;;;;;;19.00;100.00;97551.59;5062443;28;20496;-73
2023/07/16 08:06:38;;;;;;;17.98;9.45;;;;;;;18.95;100.00;97547.09;5061757;28;20422;-74
2023/07/16 08:09:04;;;;;;;22.30;9.95;;;;;;;19.07;100.00;97546.59;5059878;28;20398;-76
2023/07/16 08:11:31;;;;;;;25.30;11.20;;;;;;;19.04;100.00;97548.00;5058285;28;20416;-75
2023/07/16 08:13:57;;;;;;;31.40;11.60;;;;;;;18.90;100.00;97545.34;5063166;28;20764;-76
2023/07/16 08:16:23;;;;;;;27.45;11.80;;;;;;;19.01;100.00;97547.81;5063403;28;20402;-76
2023/07/16 08:18:51;;;;;;;27.05;10.35;;;;;;;19.25;100.00;97541.06;5062281;28;20400;-76
2023/07/16 08:21:19;;;;;;;26.27;10.43;;;;;;;19.19;100.00;97544.19;5062923;28;20404;-76
2023/07/16 08:23:46;;;;;;;19.73;8.55;;;;;;;19.24;100.00;97544.09;5061611;28;20419;-75
2023/07/16 08:26:12;;;;;;;22.00;10.07;;;;;;;19.15;100.00;97537.84;5071343;28;20407;-76
2023/07/16 08:28:39;;;;;;;20.23;9.45;;;;;;;19.24;100.00;97530.66;5060869;28;20448;-76
2023/07/16 08:31:05;;;;;;;24.05;10.70;;;;;;;19.43;100.00;97522.44;5065219;28;20404;-76
2023/07/16 08:33:31;;;;;;;20.88;9.88;;;;;;;19.47;100.00;97508.13;5066143;28;20803;-76
2023/07/16 08:35:58;;;;;;;13.50;7.63;;;;;;;19.77;100.00;97511.97;5071132;28;20400;-75
2023/07/16 08:38:25;;;;;;;25.20;10.10;;;;;;;19.43;100.00;97520.53;5071085;28;20404;-76
2023/07/16 08:40:51;;;;;;;23.85;8.00;;;;;;;18.96;100.00;97524.56;5070400;28;20403;-73
2023/07/16 08:43:18;;;;;;;14.98;7.07;;;;;;;19.61;100.00;97524.97;5070665;28;20403;-73
2023/07/16 08:45:46;;;;;;;24.87;9.20;;;;;;;19.57;100.00;97523.19;5070540;28;20411;-74
2023/07/16 08:48:12;;;;;;;17.42;7.75;;;;;;;19.77;100.00;97538.03;5070901;28;20498;-73
2023/07/16 08:50:41;;;;;;;18.23;8.40;;;;;;;20.07;100.00;97532.66;5071161;28;20422;-74
2023/07/16 08:53:09;;;;;;;15.85;7.53;;;;;;;20.37;100.00;97536.47;5070969;28;20877;-75
2023/07/16 08:55:36;;;;;;;17.23;7.75;;;;;;;20.26;100.00;97532.44;5070691;28;20399;-75
2023/07/16 08:58:04;;;;;;;18.55;7.85;;;;;;;20.01;100.00;97543.84;5070959;28;20403;-75
2023/07/16 09:00:31;;;;;;;14.40;5.88;;;;;;;19.98;100.00;97537.22;5070783;28;20400;-75
2023/07/16 09:02:58;;;;;;;13.23;5.55;;;;;;;19.86;100.00;97545.03;5072994;28;21052;-75
2023/07/16 09:05:24;;;;;;;12.30;5.37;;;;;;;20.00;100.00;97553.81;5066835;28;20428;-74
2023/07/16 09:07:50;;;;;;;14.73;5.88;;;;;;;20.10;100.00;97550.88;5094300;28;20423;-74
2023/07/16 09:10:18;;;;;;;10.50;5.60;;;;;;;19.85;100.00;97546.13;5077051;28;20443;-74
2023/07/16 09:12:45;;;;;;;10.30;4.93;;;;;;;19.76;100.00;97531.88;5080905;28;20413;-75
2023/07/16 09:15:16;;;;;;;12.37;5.00;;;;;;;19.73;100.00;97535.16;5081663;28;20442;-74
2023/07/16 09:17:46;;;;;;;11.65;5.30;;;;;;;19.66;100.00;97532.91;5084011;28;20433;-75
2023/07/16 09:20:14;;;;;;;11.75;5.10;;;;;;;19.86;100.00;97525.44;5085882;28;20411;-75
2023/07/16 09:22:40;;;;;;;8.85;4.82;;;;;;;19.80;100.00;97540.09;5081418;28;20481;-73
2023/07/16 09:25:07;;;;;;;11.07;5.13;;;;;;;19.69;100.00;97540.38;5083613;28;20412;-75
2023/07/16 09:27:35;;;;;;;11.05;4.60;;;;;;;19.75;100.00;97532.19;5083844;28;20425;-74
2023/07/16 09:30:04;;;;;;;14.88;5.10;;;;;;;19.82;100.00;97533.34;5056422;28;20445;-73
2023/07/16 09:32:34;;;;;;;7.15;3.35;;;;;;;19.72;100.00;97536.25;5082921;28;20424;-74
2023/07/16 09:35:00;;;;;;;9.65;3.33;;;;;;;19.18;100.00;97524.59;5064413;28;20444;-75
2023/07/16 09:37:27;;;;;;;10.02;4.03;;;;;;;19.57;100.00;97531.25;5065639;28;20396;-75
2023/07/16 09:39:56;;;;;;;10.85;4.80;;;;;;;20.00;100.00;97532.31;5069226;28;20808;-75
2023/07/16 09:42:23;;;;;;;6.93;4.05;;;;;;;20.10;100.00;97536.63;5052898;28;20419;-75
2023/07/16 09:44:54;;;;;;;10.57;4.50;;;;;;;20.27;100.00;97536.72;5069173;28;20747;-75
2023/07/16 09:47:20;;;;;;;12.82;4.18;;;;;;;20.04;100.00;97530.63;5086780;28;20903;-75
2023/07/16 09:49:47;;;;;;;10.30;3.90;;;;;;;20.12;100.00;97542.50;5089436;28;20413;-75
2023/07/16 09:52:16;;;;;;;8.65;3.15;;;;;;;20.45;100.00;97543.78;5085742;28;20404;-75
2023/07/16 09:54:46;;;;;;;9.02;3.95;;;;;;;20.71;100.00;97529.63;5094697;28;20398;-75
2023/07/16 09:57:14;;;;;;;10.20;3.80;;;;;;;20.88;100.00;97526.19;5079246;28;20409;-74
2023/07/16 09:59:41;;;;;;;8.05;3.50;;;;;;;20.89;100.00;97525.88;5086286;28;20404;-74
2023/07/16 10:02:09;;;;;;;4.97;2.65;;;;;;;20.76;100.00;97524.09;5069254;28;20433;-73
2023/07/16 10:04:40;;;;;;;4.40;3.10;;;;;;;20.62;100.00;97526.13;5093847;28;20406;-73
2023/07/16 10:07:17;;;;;;;4.67;2.90;;;;;;;20.78;100.00;97532.66;5090404;28;20536;-73
2023/07/16 10:09:52;;;;;;;10.13;3.42;;;;;;;21.04;100.00;97543.47;5085442;28;20412;-73
2023/07/16 10:12:20;;;;;;;4.78;2.97;;;;;;;20.99;100.00;97536.31;5084949;28;20901;-73
2023/07/16 10:14:48;;;;;;;9.10;3.30;;;;;;;21.24;100.00;97543.69;5089447;28;20478;-74
2023/07/16 10:17:17;;;;;;;8.27;3.33;;;;;;;21.01;100.00;97538.72;5081355;28;20872;-73
2023/07/16 10:19:50;;;;;;;5.65;2.47;;;;;;;21.20;100.00;97523.09;5091761;28;20926;-73
2023/07/16 10:22:17;;;;;;;4.88;2.30;;;;;;;21.05;100.00;97524.31;5094618;28;20437;-73
2023/07/16 10:24:43;;;;;;;5.33;2.77;;;;;;;21.35;100.00;97514.53;5090316;28;20408;-73
2023/07/16 10:27:13;;;;;;;4.88;2.75;;;;;;;21.28;100.00;97524.97;5074576;28;20417;-73
2023/07/16 10:29:39;;;;;;;3.95;2.58;;;;;;;21.31;100.00;97524.34;5062254;28;20416;-73
2023/07/16 10:32:07;;;;;;;7.90;2.70;;;;;;;21.51;100.00;97531.78;5082825;28;20473;-74
2023/07/16 10:34:36;;;;;;;8.88;2.67;;;;;;;21.75;100.00;97515.13;5089479;28;20990;-73
2023/07/16 10:37:05;;;;;;;3.60;2.30;;;;;;;21.85;100.00;97514.00;5091951;28;20394;-74
2023/07/16 10:39:32;;;;;;;5.70;3.10;;;;;;;21.76;100.00;97518.63;5093172;28;20408;-73
2023/07/16 10:41:58;;;;;;;3.90;2.70;;;;;;;22.12;100.00;97500.16;5081940;28;20778;-73
2023/07/16 10:44:27;;;;;;;4.97;2.90;;;;;;;22.26;100.00;97514.22;5069505;28;20442;-74
2023/07/16 10:46:55;;;;;;;4.10;2.60;;;;;;;22.10;100.00;97498.91;5087527;28;20418;-73
2023/07/16 10:49:28;;;;;;;5.27;2.80;;;;;;;21.92;100.00;97507.00;5097994;28;20398;-74
2023/07/16 10:51:57;;;;;;;7.10;2.88;;;;;;;21.94;100.00;97502.09;5088067;28;20404;-73
2023/07/16 10:54:24;;;;;;;7.13;2.42;;;;;;;21.98;100.00;97503.06;5088289;28;20958;-74
2023/07/16 10:56:51;;;;;;;6.85;3.17;;;;;;;22.20;100.00;97493.94;5076324;28;20782;-73
2023/07/16 10:59:19;;;;;;;5.70;2.38;;;;;;;21.95;100.00;97500.19;5086899;28;20400;-74
2023/07/16 11:01:46;;;;;;;5.50;2.50;;;;;;;22.04;100.00;97497.47;5081767;28;20416;-74
2023/07/16 11:04:12;;;;;;;5.55;2.70;;;;;;;21.84;100.00;97497.03;5066386;28;20414;-73
2023/07/16 11:06:38;;;;;;;5.60;2.92;;;;;;;22.23;100.00;97506.78;5081328;28;20409;-73
2023/07/16 11:09:10;;;;;;;3.78;2.40;;;;;;;22.57;100.00;97499.63;5086685;28;20405;-73
2023/07/16 11:11:36;;;;;;;3.83;2.30;;;;;;;22.26;100.00;97499.94;5091448;28;20404;-74
2023/07/16 11:14:04;;;;;;;5.18;2.03;;;;;;;22.02;100.00;97497.81;5080977;28;20408;-74
2023/07/16 11:16:34;;;;;;;6.35;2.53;;;;;;;22.44;100.00;97485.28;5075645;28;20410;-73
2023/07/16 11:19:03;;;;;;;3.30;2.33;;;;;;;22.42;100.00;97503.69;5097190;28;20487;-73